Time;durP1;ratioP1;P1;durP2;ratioP2;P2;SDS_P1;SDS_P2;PMS_P1;PMS_P2;Temp;Humidity;BMP_temperature;BMP_pressure;BME280_temperature;BME280_humidity;BME280_pressure;Samples;Min_cycle;Max_cycle;Signal;HPM_P1;HPM_P2
2023/12/21 00:01:36;;;;;;;19.50;14.60;;;;;;;20.18;35.32;99958.27;102938;1296;60099;-83
2023/12/21 00:04:02;;;;;;;19.30;14.40;;;;;;;20.18;35.28;99952.28;102699;1295;62187;-83
2023/12/21 00:06:28;;;;;;;19.80;13.80;;;;;;;20.16;35.34;99957.56;103042;1296;62116;-83
2023/12/21 00:08:54;;;;;;;17.50;13.60;;;;;;;20.16;35.27;99956.91;102900;1296;60162;-83
2023/12/21 00:11:19;;;;;;;16.80;13.60;;;;;;;20.14;35.36;99953.96;102761;1295;60130;-83
2023/12/21 00:13:46;;;;;;;19.30;13.40;;;;;;;20.14;35.30;99955.27;102982;1295;62222;-83
2023/12/21 00:16:12;;;;;;;17.10;13.70;;;;;;;20.13;35.32;99954.96;102793;1296;62079;-83
2023/12/21 00:18:38;;;;;;;18.00;13.80;;;;;;;20.12;35.38;99958.05;102805;1295;62241;-83
2023/12/21 00:21:04;;;;;;;20.40;14.70;;;;;;;20.11;35.32;99959.95;102895;1296;62201;-83
2023/12/21 00:23:29;;;;;;;17.60;13.70;;;;;;;20.11;35.40;99956.02;103302;1296;62177;-83
2023/12/21 00:25:55;;;;;;;18.20;13.70;;;;;;;20.10;35.29;99958.23;102905;1295;72378;-83
2023/12/21 00:28:21;;;;;;;16.80;13.90;;;;;;;20.09;35.44;99963.27;102818;1301;62260;-83
2023/12/21 00:30:47;;;;;;;18.40;14.30;;;;;;;20.08;35.39;99966.58;102750;1296;62267;-83
2023/12/21 00:33:14;;;;;;;19.60;14.30;;;;;;;20.08;35.33;99971.41;102895;1295;62209;-83
2023/12/21 00:35:39;;;;;;;16.80;13.70;;;;;;;20.07;35.40;99976.31;102738;1296;62264;-83
2023/12/21 00:38:05;;;;;;;18.70;14.30;;;;;;;20.07;35.26;99975.45;102813;1296;62075;-83
2023/12/21 00:40:31;;;;;;;19.00;14.30;;;;;;;20.06;35.50;99969.81;102750;1296;62062;-83
2023/12/21 00:42:57;;;;;;;20.00;14.80;;;;;;;20.06;35.31;99970.91;103344;1294;62229;-83
2023/12/21 00:45:22;;;;;;;19.40;14.40;;;;;;;20.05;35.27;99967.54;102767;1294;62045;-83
2023/12/21 00:47:48;;;;;;;18.40;13.70;;;;;;;20.05;35.49;99962.94;102888;1294;62088;-83
2023/12/21 00:50:15;;;;;;;19.50;14.50;;;;;;;20.04;35.51;99962.48;102714;1300;62073;-83
2023/12/21 00:52:41;;;;;;;18.20;14.60;;;;;;;20.04;35.47;99964.44;102843;1293;62172;-83
2023/12/21 00:55:07;;;;;;;18.90;15.00;;;;;;;20.03;35.41;99964.47;102924;1293;62206;-83
2023/12/21 00:57:33;;;;;;;19.90;15.00;;;;;;;20.03;35.39;99968.95;103039;1296;60015;-83
2023/12/21 00:59:58;;;;;;;20.30;14.90;;;;;;;20.04;35.51;99966.04;102754;1296;62246;-83
2023/12/21 01:02:24;;;;;;;18.70;14.30;;;;;;;20.05;35.43;99964.89;103070;1293;63436;-83
2023/12/21 01:04:50;;;;;;;19.00;14.50;;;;;;;20.07;35.51;99961.19;102889;1299;62110;-83
2023/12/21 01:07:15;;;;;;;18.80;14.00;;;;;;;20.08;35.33;99961.59;102623;1293;62302;-83
2023/12/21 01:09:41;;;;;;;18.00;14.40;;;;;;;20.10;35.42;99959.64;102761;1293;62699;-83
2023/12/21 01:12:07;;;;;;;19.00;14.50;;;;;;;20.12;35.29;99960.56;102967;1293;62158;-83
2023/12/21 01:14:32;;;;;;;18.60;14.80;;;;;;;20.14;35.28;99958.11;102697;1294;62295;-83
2023/12/21 01:16:58;;;;;;;17.80;14.80;;;;;;;20.16;35.20;99958.48;102792;1293;62254;-83
2023/12/21 01:19:23;;;;;;;20.80;14.50;;;;;;;20.18;35.32;99956.52;102920;1293;62208;-83
2023/12/21 01:21:49;;;;;;;19.20;14.40;;;;;;;20.20;35.23;99957.99;102814;1293;62225;-83
2023/12/21 01:24:15;;;;;;;18.00;14.70;;;;;;;20.22;35.13;99959.58;102833;1294;62177;-83
2023/12/21 01:26:41;;;;;;;19.10;15.10;;;;;;;20.24;35.23;99958.72;102674;1293;63822;-83
2023/12/21 01:29:07;;;;;;;18.40;14.80;;;;;;;20.26;35.23;99961.77;102740;1293;60110;-83
2023/12/21 01:31:33;;;;;;;18.90;14.70;;;;;;;20.29;34.98;99958.18;102761;1293;62337;-83
2023/12/21 01:33:59;;;;;;;20.60;15.20;;;;;;;20.30;35.16;99948.77;103002;1294;62175;-83
2023/12/21 01:36:26;;;;;;;20.10;15.40;;;;;;;20.32;35.04;99952.38;102766;1293;75283;-83
2023/12/21 01:38:52;;;;;;;18.20;14.30;;;;;;;20.33;35.11;99948.70;103006;1294;60159;-83
2023/12/21 01:41:17;;;;;;;18.90;14.70;;;;;;;20.35;34.99;99944.27;102830;1293;62299;-83
2023/12/21 01:43:43;;;;;;;18.50;14.90;;;;;;;20.36;34.99;99941.48;102928;1293;62192;-83
2023/12/21 01:46:09;;;;;;;19.50;15.00;;;;;;;20.37;34.95;99948.70;102974;1293;60093;-83
2023/12/21 01:48:35;;;;;;;18.30;14.80;;;;;;;20.39;35.04;99949.85;103038;1296;62153;-83
2023/12/21 01:51:01;;;;;;;18.30;14.70;;;;;;;20.40;34.92;99938.11;103035;1294;62229;-83
2023/12/21 01:53:26;;;;;;;18.40;14.00;;;;;;;20.42;34.86;99939.77;102846;1294;62181;-83
2023/12/21 01:55:52;;;;;;;18.70;14.80;;;;;;;20.43;34.97;99946.85;103213;1293;60158;-83
2023/12/21 01:58:17;;;;;;;19.70;15.50;;;;;;;20.44;34.97;99957.46;102764;1293;60083;-83
2023/12/21 02:00:43;;;;;;;18.10;14.40;;;;;;;20.45;34.86;99964.39;103031;1293;62173;-83
2023/12/21 02:03:09;;;;;;;18.10;15.10;;;;;;;20.47;34.91;99967.28;103026;1294;62186;-83
2023/12/21 02:05:34;;;;;;;17.30;14.20;;;;;;;20.47;34.87;99967.77;102778;1294;62170;-83
2023/12/21 02:08:00;;;;;;;21.80;15.70;;;;;;;20.48;34.70;99970.04;102768;1294;69523;-83
2023/12/21 02:10:26;;;;;;;19.50;15.20;;;;;;;20.49;34.86;99969.05;102991;1296;62212;-83
2023/12/21 02:12:52;;;;;;;19.10;15.20;;;;;;;20.50;34.74;99971.63;102745;1293;62405;-83
2023/12/21 02:15:17;;;;;;;18.50;13.80;;;;;;;20.51;34.87;99967.65;102760;1293;62154;-83
2023/12/21 02:17:44;;;;;;;20.20;15.20;;;;;;;20.51;34.86;99964.91;102912;1293;62209;-83
2023/12/21 02:20:09;;;;;;;19.20;15.00;;;;;;;20.52;34.74;99956.09;102889;1294;62104;-83
2023/12/21 02:22:37;;;;;;;21.00;15.30;;;;;;;20.53;34.80;99957.83;103037;1293;60505;-83
2023/12/21 02:25:02;;;;;;;19.80;15.20;;;;;;;20.53;34.92;99952.79;102790;1294;62195;-83
2023/12/21 02:27:28;;;;;;;18.70;15.40;;;;;;;20.54;34.70;99950.92;102604;1298;62168;-83
2023/12/21 02:29:54;;;;;;;18.10;14.70;;;;;;;20.54;34.66;99950.54;102615;1299;62177;-83
2023/12/21 02:32:19;;;;;;;18.00;14.70;;;;;;;20.55;34.77;99949.21;102649;1299;60827;-83
2023/12/21 02:34:45;;;;;;;19.70;15.10;;;;;;;20.56;34.75;99946.48;103086;1299;62353;-83
2023/12/21 02:37:11;;;;;;;19.20;15.20;;;;;;;20.56;34.67;99942.15;102563;1299;62216;-83
2023/12/21 02:39:36;;;;;;;19.40;15.00;;;;;;;20.57;34.64;99939.42;102573;1299;60208;-83
2023/12/21 02:42:03;;;;;;;19.80;15.30;;;;;;;20.57;34.67;99931.15;102650;1298;62466;-83
2023/12/21 02:44:29;;;;;;;17.50;14.70;;;;;;;20.58;34.61;99928.98;102613;1300;62288;-83
2023/12/21 02:46:54;;;;;;;20.10;14.90;;;;;;;20.58;34.57;99927.71;102574;1297;60264;-83
2023/12/21 02:49:22;;;;;;;19.90;16.00;;;;;;;20.59;34.64;99924.81;102603;1299;62227;-83
2023/12/21 02:51:47;;;;;;;18.60;14.70;;;;;;;20.59;34.58;99925.31;102617;1299;62407;-83
2023/12/21 02:54:13;;;;;;;18.10;14.70;;;;;;;20.59;34.74;99936.35;102634;1299;62111;-83
2023/12/21 02:56:39;;;;;;;19.90;15.50;;;;;;;20.59;34.57;99931.88;102574;1298;62100;-83
2023/12/21 02:59:04;;;;;;;19.30;15.10;;;;;;;20.61;34.64;99932.33;102726;1299;62282;-83
2023/12/21 03:01:30;;;;;;;20.00;15.50;;;;;;;20.60;34.65;99928.59;102671;1300;62350;-83
2023/12/21 03:03:56;;;;;;;16.70;14.60;;;;;;;20.61;34.50;99929.60;102636;1300;62274;-83
2023/12/21 03:06:22;;;;;;;19.90;14.90;;;;;;;20.61;34.59;99931.04;102779;1294;62100;-83
2023/12/21 03:08:47;;;;;;;17.30;14.30;;;;;;;20.62;34.56;99935.39;102964;1293;61959;-83
2023/12/21 03:11:13;;;;;;;17.30;14.80;;;;;;;20.62;34.59;99944.71;102873;1293;62337;-83
2023/12/21 03:13:39;;;;;;;18.30;14.90;;;;;;;20.63;34.62;99947.17;102639;1294;60094;-83
2023/12/21 03:16:09;;;;;;;17.40;14.30;;;;;;;20.63;34.40;99950.36;102758;1294;62243;-83
2023/12/21 03:18:34;;;;;;;18.60;15.20;;;;;;;20.63;34.52;99943.19;103171;1293;75268;-83
2023/12/21 03:21:00;;;;;;;18.30;14.90;;;;;;;20.63;34.43;99952.14;102917;1294;60179;-83
2023/12/21 03:23:25;;;;;;;19.10;14.80;;;;;;;20.64;34.56;99966.21;102966;1293;62151;-83
2023/12/21 03:25:51;;;;;;;19.70;15.50;;;;;;;20.65;34.53;99982.61;103047;1294;62218;-83
2023/12/21 03:28:17;;;;;;;18.30;15.40;;;;;;;20.65;34.47;99991.18;103360;1293;60434;-83
2023/12/21 03:30:43;;;;;;;16.70;14.00;;;;;;;20.65;34.52;100013.16;103152;1293;62328;-83
2023/12/21 03:33:09;;;;;;;18.90;15.40;;;;;;;20.65;34.51;100028.35;102771;1297;60682;-83
2023/12/21 03:35:34;;;;;;;17.90;14.90;;;;;;;20.66;34.50;100039.71;102978;1293;60835;-83
2023/12/21 03:38:00;;;;;;;18.50;14.70;;;;;;;20.66;34.40;100056.88;103339;1293;62625;-83
2023/12/21 03:40:26;;;;;;;19.10;14.70;;;;;;;20.66;34.46;100069.57;103101;1293;62201;-83
2023/12/21 03:42:52;;;;;;;17.60;14.60;;;;;;;20.67;34.39;100080.42;102980;1293;60419;-83
2023/12/21 03:45:19;;;;;;;18.40;14.50;;;;;;;20.67;34.31;100080.96;103111;1294;62362;-83
2023/12/21 03:47:45;;;;;;;19.50;15.00;;;;;;;20.66;34.36;100084.20;103293;1294;62203;-83
2023/12/21 03:50:11;;;;;;;18.10;15.20;;;;;;;20.67;34.30;100093.48;103114;1294;62088;-83
2023/12/21 03:52:37;;;;;;;17.70;15.10;;;;;;;20.67;34.44;100100.23;103009;1294;62192;-83
2023/12/21 03:55:04;;;;;;;18.50;15.20;;;;;;;20.67;34.48;100112.36;103369;1293;62251;-83
2023/12/21 03:57:29;;;;;;;19.10;15.10;;;;;;;20.67;34.36;100123.10;103216;1294;62217;-83
2023/12/21 03:59:55;;;;;;;19.20;15.30;;;;;;;20.68;34.42;100120.38;103286;1293;60109;-83
2023/12/21 04:02:21;;;;;;;19.30;15.20;;;;;;;20.68;34.38;100116.79;103069;1294;62229;-83
2023/12/21 04:04:47;;;;;;;18.00;14.80;;;;;;;20.68;34.30;100118.75;103145;1293;62081;-83
2023/12/21 04:07:13;;;;;;;18.40;15.00;;;;;;;20.68;34.13;100124.64;103142;1293;62242;-83
2023/12/21 04:09:39;;;;;;;18.20;14.50;;;;;;;20.68;34.22;100122.66;103058;1293;60835;-83
2023/12/21 04:12:05;;;;;;;18.60;15.30;;;;;;;20.69;34.26;100124.21;103419;1293;62081;-83
2023/12/21 04:14:31;;;;;;;19.40;15.80;;;;;;;20.69;34.29;100126.92;103211;1294;75369;-83
2023/12/21 04:16:56;;;;;;;18.70;15.40;;;;;;;20.70;34.23;100124.00;103168;1296;62161;-83
2023/12/21 04:19:22;;;;;;;19.80;15.20;;;;;;;20.69;34.25;100122.95;103571;1293;62298;-83
2023/12/21 04:21:48;;;;;;;20.10;15.20;;;;;;;20.69;34.29;100126.36;102944;1294;62105;-83
2023/12/21 04:24:14;;;;;;;18.50;15.50;;;;;;;20.69;34.37;100123.84;103359;1293;60039;-83
2023/12/21 04:26:40;;;;;;;17.70;14.90;;;;;;;20.70;34.33;100101.13;103255;1293;60111;-83
2023/12/21 04:29:07;;;;;;;19.00;15.10;;;;;;;20.70;34.22;100105.00;103418;1293;60011;-83
2023/12/21 04:31:33;;;;;;;19.90;15.60;;;;;;;20.70;34.33;100110.17;102992;1293;59935;-83
2023/12/21 04:33:59;;;;;;;17.70;14.90;;;;;;;20.71;34.35;100116.05;103197;1293;60147;-83
2023/12/21 04:36:24;;;;;;;19.30;15.20;;;;;;;20.71;34.28;100113.68;103206;1294;60763;-83
2023/12/21 04:38:50;;;;;;;18.80;14.90;;;;;;;20.71;34.31;100109.61;102946;1293;60026;-83
2023/12/21 04:41:16;;;;;;;20.20;15.60;;;;;;;20.71;34.28;100110.14;103114;1293;60231;-83
2023/12/21 04:43:42;;;;;;;17.90;15.10;;;;;;;20.71;34.13;100108.67;103382;1293;59939;-83
2023/12/21 04:46:09;;;;;;;17.50;14.60;;;;;;;20.71;34.15;100107.95;103108;1293;62303;-83
2023/12/21 04:48:34;;;;;;;18.20;14.50;;;;;;;20.72;34.24;100107.76;103066;1299;74169;-83
2023/12/21 04:51:01;;;;;;;19.20;14.80;;;;;;;20.72;34.13;100112.20;103073;1293;62173;-83
2023/12/21 04:53:27;;;;;;;20.70;15.80;;;;;;;20.72;34.11;100110.23;103369;1294;60162;-82
2023/12/21 04:55:52;;;;;;;18.00;14.70;;;;;;;20.72;34.02;100116.83;103498;1294;62104;-82
2023/12/21 04:58:18;;;;;;;16.60;14.40;;;;;;;20.72;34.10;100115.22;103329;1294;60050;-82
2023/12/21 05:00:50;;;;;;;19.40;15.70;;;;;;;20.72;34.12;100110.02;103114;1294;62190;-82
2023/12/21 05:03:19;;;;;;;17.90;14.00;;;;;;;20.73;34.05;100108.36;102954;1293;60319;-82
2023/12/21 05:05:45;;;;;;;19.60;15.30;;;;;;;20.73;34.23;100106.91;103592;1294;72516;-82
2023/12/21 05:08:12;;;;;;;17.80;15.00;;;;;;;20.73;34.14;100108.19;103067;1294;59831;-81
2023/12/21 05:10:38;;;;;;;17.20;14.70;;;;;;;20.73;34.12;100109.23;103120;1296;62389;-81
2023/12/21 05:13:04;;;;;;;16.90;14.70;;;;;;;20.74;34.12;100115.10;103215;1295;62212;-82
2023/12/21 05:15:29;;;;;;;19.20;15.50;;;;;;;20.74;34.14;100112.21;103185;1293;62305;-82
2023/12/21 05:17:55;;;;;;;20.90;15.70;;;;;;;20.74;34.05;100111.87;103186;1293;62197;-83
2023/12/21 05:20:21;;;;;;;18.70;16.10;;;;;;;20.74;34.17;100107.92;103334;1294;62197;-83
2023/12/21 05:22:46;;;;;;;19.10;15.60;;;;;;;20.74;34.21;100112.21;103596;1294;62345;-83
2023/12/21 05:25:14;;;;;;;19.40;15.90;;;;;;;20.73;34.06;100117.83;103420;1294;61913;-82
2023/12/21 05:27:40;;;;;;;22.90;16.40;;;;;;;20.73;34.08;100130.33;103290;1299;72321;-84
2023/12/21 05:30:06;;;;;;;19.80;15.50;;;;;;;20.72;33.92;100133.60;103573;1293;62277;-84
2023/12/21 05:32:32;;;;;;;19.40;16.10;;;;;;;20.72;34.04;100135.48;103443;1299;62196;-83
2023/12/21 05:34:58;;;;;;;20.00;16.50;;;;;;;20.71;34.07;100136.05;103369;1296;60367;-83
2023/12/21 05:37:24;;;;;;;20.80;15.40;;;;;;;20.70;33.99;100137.04;103893;1293;59939;-83
2023/12/21 05:39:50;;;;;;;20.10;15.80;;;;;;;20.69;34.01;100141.23;103940;1299;60343;-84
2023/12/21 05:42:16;;;;;;;22.10;17.60;;;;;;;20.66;34.00;100139.79;104516;1293;60579;-82
2023/12/21 05:44:41;;;;;;;23.00;18.10;;;;;;;20.62;33.79;100141.38;104539;1294;62266;-83
2023/12/21 05:47:07;;;;;;;22.80;18.10;;;;;;;20.58;33.84;100134.58;104365;1297;62086;-81
2023/12/21 05:49:33;;;;;;;25.20;19.90;;;;;;;20.52;33.75;100131.12;104427;1293;60170;-82
2023/12/21 05:51:59;;;;;;;26.80;21.00;;;;;;;20.47;33.52;100132.44;104394;1296;62085;-81
2023/12/21 05:54:26;;;;;;;27.60;22.80;;;;;;;20.39;33.11;100132.42;104689;1293;61752;-81
2023/12/21 05:56:52;;;;;;;29.20;18.50;;;;;;;20.32;32.95;100131.97;104678;1296;62015;-82
2023/12/21 05:59:18;;;;;;;25.10;18.80;;;;;;;20.26;33.00;100130.96;104515;1296;62179;-83
2023/12/21 06:01:45;;;;;;;27.90;20.30;;;;;;;20.23;33.19;100130.83;104586;1294;60194;-83
2023/12/21 06:04:20;;;;;;;26.00;19.20;;;;;;;20.19;33.23;100132.55;104778;1294;60239;-82
2023/12/21 06:06:46;;;;;;;33.70;20.20;;;;;;;20.18;33.21;100138.61;104388;1294;60261;-81
2023/12/21 06:09:13;;;;;;;26.90;19.70;;;;;;;20.16;33.14;100140.91;104625;1299;71697;-82
2023/12/21 06:11:40;;;;;;;30.20;21.40;;;;;;;20.14;33.22;100148.16;104688;1299;74362;-81
2023/12/21 06:14:05;;;;;;;29.60;20.50;;;;;;;20.11;33.17;100154.11;104618;1294;62061;-82
2023/12/21 06:16:31;;;;;;;25.60;20.10;;;;;;;20.07;32.94;100153.90;104911;1293;61092;-81
2023/12/21 06:18:59;;;;;;;25.30;20.70;;;;;;;20.04;32.60;100165.20;105080;1294;59952;-82
2023/12/21 06:21:24;;;;;;;26.90;20.40;;;;;;;20.01;32.59;100177.23;104818;1296;62130;-82
2023/12/21 06:23:50;;;;;;;27.90;20.30;;;;;;;19.99;32.55;100177.02;104288;1299;60475;-79
2023/12/21 06:26:15;;;;;;;25.80;19.70;;;;;;;19.98;32.38;100178.38;103890;1298;62123;-80
2023/12/21 06:28:41;;;;;;;25.60;20.10;;;;;;;19.98;32.44;100180.30;103680;1294;60919;-79
2023/12/21 06:31:08;;;;;;;24.70;19.50;;;;;;;20.00;32.29;100182.48;103907;1296;59765;-79
2023/12/21 06:33:34;;;;;;;28.80;19.80;;;;;;;20.01;32.13;100186.65;103892;1298;76394;-80
2023/12/21 06:36:00;;;;;;;27.10;20.00;;;;;;;20.04;32.09;100193.80;104020;1294;61051;-80
2023/12/21 06:38:26;;;;;;;28.40;18.30;;;;;;;20.03;32.00;100194.00;104057;1294;59976;-82
2023/12/21 06:40:52;;;;;;;24.10;19.10;;;;;;;20.03;32.15;100192.25;104181;1296;59801;-82
2023/12/21 06:43:19;;;;;;;26.50;20.00;;;;;;;20.03;32.17;100189.60;103999;1296;62203;-81
2023/12/21 06:45:47;;;;;;;35.10;19.60;;;;;;;20.00;32.34;100190.17;104096;1297;62237;-81
2023/12/21 06:48:13;;;;;;;25.10;19.30;;;;;;;19.97;31.99;100191.12;104195;1298;62133;-81
2023/12/21 06:50:39;;;;;;;27.90;21.40;;;;;;;19.95;32.47;100193.57;104456;1298;61075;-81
2023/12/21 06:53:05;;;;;;;26.50;20.40;;;;;;;19.93;32.56;100200.48;104441;1294;60548;-81
2023/12/21 06:55:30;;;;;;;29.20;21.20;;;;;;;19.91;32.65;100198.70;104375;1298;60905;-78
2023/12/21 06:57:56;;;;;;;27.60;21.20;;;;;;;19.87;32.57;100199.70;104108;1293;62136;-78
2023/12/21 07:00:22;;;;;;;30.00;22.00;;;;;;;19.84;32.64;100200.09;104018;1294;61065;-78
2023/12/21 07:02:48;;;;;;;31.60;21.30;;;;;;;19.82;32.53;100205.41;103716;1298;72580;-78
2023/12/21 07:05:14;;;;;;;28.10;21.30;;;;;;;19.83;32.52;100215.40;103775;1294;61137;-78
2023/12/21 07:07:39;;;;;;;27.40;20.50;;;;;;;19.85;32.41;100227.02;103967;1297;62193;-78
2023/12/21 07:10:06;;;;;;;33.10;21.10;;;;;;;19.87;32.52;100224.54;104271;1297;61072;-78
2023/12/21 07:12:32;;;;;;;25.60;19.80;;;;;;;19.90;32.65;100226.80;103955;1295;60484;-77
2023/12/21 07:14:57;;;;;;;24.80;19.60;;;;;;;19.93;32.60;100225.84;103680;1296;59975;-78
2023/12/21 07:17:23;;;;;;;27.90;19.50;;;;;;;19.96;32.64;100220.97;104482;1294;60163;-79
2023/12/21 07:19:48;;;;;;;25.50;18.90;;;;;;;19.98;32.62;100221.21;104345;1303;60340;-79
2023/12/21 07:22:14;;;;;;;29.50;19.40;;;;;;;19.99;32.93;100221.54;104699;1296;62203;-79
2023/12/21 07:24:40;;;;;;;30.70;21.20;;;;;;;19.98;32.93;100230.72;104528;1293;60490;-79
2023/12/21 07:27:05;;;;;;;29.50;21.60;;;;;;;19.97;32.92;100232.40;104422;1294;60139;-78
2023/12/21 07:29:31;;;;;;;32.70;21.70;;;;;;;19.96;32.98;100236.38;104604;1294;61258;-77
2023/12/21 07:31:57;;;;;;;28.20;21.50;;;;;;;19.98;33.11;100241.43;104265;1293;61013;-79
2023/12/21 07:34:23;;;;;;;31.70;22.00;;;;;;;19.99;33.25;100244.34;104205;1296;62046;-84
2023/12/21 07:36:49;;;;;;;36.20;21.10;;;;;;;20.00;33.43;100245.56;103631;1299;884691;-79
2023/12/21 07:39:14;;;;;;;34.20;21.20;;;;;;;19.99;33.62;100246.16;104598;1294;62184;-79
2023/12/21 07:41:40;;;;;;;34.00;21.40;;;;;;;19.98;33.74;100247.51;104028;1299;60954;-79
2023/12/21 07:44:07;;;;;;;38.50;22.80;;;;;;;19.96;33.89;100252.61;103887;1299;60803;-80
2023/12/21 07:46:33;;;;;;;35.60;22.60;;;;;;;19.94;33.99;100267.23;104008;1293;60805;-81
2023/12/21 07:48:59;;;;;;;36.30;22.40;;;;;;;19.92;33.86;100275.07;104323;1296;62198;-79
2023/12/21 07:51:25;;;;;;;32.10;24.10;;;;;;;19.90;33.85;100275.52;103707;1294;75100;-80
2023/12/21 07:53:51;;;;;;;31.90;22.80;;;;;;;19.90;33.93;100276.59;103798;1294;60036;-80
2023/12/21 07:56:17;;;;;;;28.60;22.10;;;;;;;19.91;33.62;100264.61;104152;1294;59984;-78
2023/12/21 07:58:43;;;;;;;27.80;22.40;;;;;;;19.90;33.66;100255.05;104012;1294;60216;-80
2023/12/21 08:01:08;;;;;;;31.40;22.40;;;;;;;19.89;33.58;100251.14;104443;1293;61706;-79
2023/12/21 08:03:34;;;;;;;30.00;21.90;;;;;;;19.87;33.64;100252.52;104081;1299;60753;-79
2023/12/21 08:06:00;;;;;;;32.50;22.40;;;;;;;19.87;33.65;100260.59;104209;1296;60469;-80
2023/12/21 08:08:25;;;;;;;34.80;24.80;;;;;;;19.86;33.36;100265.63;104096;1294;60541;-79
2023/12/21 08:10:51;;;;;;;30.40;24.40;;;;;;;19.85;33.32;100270.02;104132;1292;60409;-79
2023/12/21 08:13:17;;;;;;;31.30;24.40;;;;;;;19.83;33.10;100276.59;104063;1293;60473;-79
2023/12/21 08:15:42;;;;;;;33.90;24.20;;;;;;;19.81;33.08;100281.36;104071;1294;60913;-78
2023/12/21 08:18:09;;;;;;;30.40;20.80;;;;;;;19.78;32.97;100287.81;104237;1294;60755;-80
2023/12/21 08:20:36;;;;;;;30.30;24.40;;;;;;;19.76;33.22;100286.73;105484;1296;60280;-79
2023/12/21 08:23:03;;;;;;;34.80;24.80;;;;;;;19.73;33.28;100281.00;105239;1296;60256;-80
2023/12/21 08:25:32;;;;;;;36.30;24.20;;;;;;;19.71;33.16;100276.72;104795;1293;60365;-79
2023/12/21 08:27:58;;;;;;;30.80;23.30;;;;;;;19.70;33.29;100277.00;104956;1298;60193;-79
2023/12/21 08:30:24;;;;;;;34.60;24.70;;;;;;;19.68;33.22;100280.03;105144;1294;72503;-79
2023/12/21 08:32:50;;;;;;;33.80;24.50;;;;;;;19.67;33.17;100283.31;104919;1298;60880;-79
2023/12/21 08:35:17;;;;;;;36.40;23.40;;;;;;;19.66;33.11;100281.60;105467;1294;60902;-80
2023/12/21 08:37:43;;;;;;;29.60;23.40;;;;;;;19.66;32.91;100284.30;105083;1293;60521;-81
2023/12/21 08:40:10;;;;;;;33.00;23.20;;;;;;;19.64;32.94;100287.81;105317;1300;59463;-79
2023/12/21 08:42:36;;;;;;;30.30;22.90;;;;;;;19.61;32.75;100288.90;105463;1293;60580;-83
2023/12/21 08:45:05;;;;;;;34.70;22.30;;;;;;;19.59;32.81;100284.41;105176;1293;59688;-82
2023/12/21 08:47:37;;;;;;;32.10;22.50;;;;;;;19.58;32.93;100276.63;105429;1293;61054;-82
2023/12/21 08:50:04;;;;;;;31.40;21.90;;;;;;;19.58;32.93;100267.82;105199;1293;72579;-81
2023/12/21 08:52:29;;;;;;;28.70;20.40;;;;;;;19.58;32.81;100266.63;105569;1296;75331;-80
2023/12/21 08:54:55;;;;;;;29.60;21.10;;;;;;;19.58;32.94;100275.69;104839;1297;60367;-81
2023/12/21 08:57:21;;;;;;;29.20;20.20;;;;;;;19.63;33.38;100284.70;104894;1293;60987;-80
2023/12/21 08:59:47;;;;;;;29.00;21.00;;;;;;;19.64;33.78;100287.95;104843;1293;60526;-80
2023/12/21 09:02:13;;;;;;;38.90;22.30;;;;;;;19.64;34.03;100282.12;104784;1293;60526;-81
2023/12/21 09:04:39;;;;;;;32.00;20.50;;;;;;;19.59;34.13;100274.91;104881;1294;59676;-80
2023/12/21 09:07:05;;;;;;;32.00;21.10;;;;;;;19.54;34.27;100271.33;105432;1294;60895;-81
2023/12/21 09:09:31;;;;;;;29.80;20.30;;;;;;;19.55;34.43;100273.45;104754;1296;60735;-80
2023/12/21 09:11:57;;;;;;;33.00;21.70;;;;;;;19.54;34.88;100272.59;104804;1292;72545;-82
2023/12/21 09:14:24;;;;;;;29.30;20.40;;;;;;;19.54;34.96;100270.65;105027;1293;60241;-80
2023/12/21 09:16:51;;;;;;;34.80;19.60;;;;;;;19.51;35.35;100264.64;104747;1293;60382;-80
2023/12/21 09:19:17;;;;;;;31.00;19.10;;;;;;;19.50;35.27;100260.42;104919;1293;59952;-79
2023/12/21 09:21:43;;;;;;;29.90;18.90;;;;;;;19.51;35.27;100258.02;104862;1293;59255;-80
2023/12/21 09:24:09;;;;;;;31.60;18.80;;;;;;;19.51;35.38;100252.34;103677;1293;60819;-81
2023/12/21 09:26:34;;;;;;;26.60;18.50;;;;;;;19.51;35.23;100256.29;104303;1293;62210;-82
2023/12/21 09:29:03;;;;;;;27.10;17.80;;;;;;;19.49;35.27;100262.80;103932;1292;62148;-82
2023/12/21 09:31:33;;;;;;;31.70;17.10;;;;;;;19.47;35.13;100262.77;103939;1293;73682;-80
2023/12/21 09:34:02;;;;;;;26.80;17.60;;;;;;;19.46;35.21;100261.27;103962;1292;75322;-80
2023/12/21 09:36:27;;;;;;;28.20;16.30;;;;;;;19.46;35.36;100257.20;104203;1294;60709;-79
2023/12/21 09:38:53;;;;;;;28.80;16.60;;;;;;;19.46;35.24;100255.40;104069;1294;62528;-80
2023/12/21 09:41:19;;;;;;;23.30;15.50;;;;;;;19.46;35.38;100251.59;104101;1294;62173;-80
2023/12/21 09:43:46;;;;;;;28.40;15.90;;;;;;;19.46;35.53;100246.77;104159;1293;60744;-80
2023/12/21 09:46:13;;;;;;;27.50;16.60;;;;;;;19.48;35.48;100241.88;103826;1293;61211;-81
2023/12/21 09:48:40;;;;;;;25.50;15.20;;;;;;;19.48;35.56;100240.73;104048;1294;62272;-80
2023/12/21 09:51:05;;;;;;;25.40;16.20;;;;;;;19.48;35.60;100235.91;104084;1293;60270;-80
2023/12/21 09:53:33;;;;;;;22.90;15.70;;;;;;;19.47;35.35;100231.52;104230;1294;62197;-80
2023/12/21 09:55:58;;;;;;;26.40;15.90;;;;;;;19.44;35.23;100231.20;103841;1292;62173;-80
2023/12/21 09:58:28;;;;;;;24.90;15.60;;;;;;;19.43;35.12;100226.13;104977;1292;61642;-81
2023/12/21 10:00:53;;;;;;;29.10;14.90;;;;;;;19.40;35.19;100222.39;104948;1294;74243;-80
2023/12/21 10:03:19;;;;;;;21.40;14.10;;;;;;;19.40;35.11;100220.83;104980;1298;60806;-80
2023/12/21 10:05:47;;;;;;;25.60;14.60;;;;;;;19.34;34.76;100217.13;104961;1294;60674;-81
2023/12/21 10:08:12;;;;;;;22.70;14.00;;;;;;;19.31;34.86;100214.34;104456;1294;62147;-80
2023/12/21 10:10:38;;;;;;;22.90;12.90;;;;;;;19.30;34.82;100206.77;104146;1292;62101;-81
2023/12/21 10:13:04;;;;;;;19.40;12.90;;;;;;;19.30;34.82;100198.89;103587;1293;62400;-79
2023/12/21 10:15:33;;;;;;;23.30;13.90;;;;;;;19.30;34.85;100199.76;104263;1293;62177;-82
2023/12/21 10:17:59;;;;;;;18.20;12.30;;;;;;;19.31;34.80;100193.52;103826;1294;62594;-80
2023/12/21 10:20:26;;;;;;;22.60;13.20;;;;;;;19.30;34.82;100187.30;103606;1293;59781;-81
2023/12/21 10:22:56;;;;;;;22.30;13.20;;;;;;;19.31;34.72;100185.45;103559;1294;75205;-81
2023/12/21 10:25:24;;;;;;;17.40;12.00;;;;;;;19.31;34.66;100178.67;103506;1294;61701;-79
2023/12/21 10:27:57;;;;;;;22.20;12.50;;;;;;;19.32;34.69;100178.59;103552;1293;60813;-80
2023/12/21 10:30:23;;;;;;;17.60;12.20;;;;;;;19.33;34.89;100172.98;103837;1293;71507;-80
2023/12/21 10:32:53;;;;;;;18.00;12.30;;;;;;;19.32;34.81;100168.05;103953;1296;75260;-79
2023/12/21 10:35:19;;;;;;;;;;;;;;;19.30;34.71;100161.64;104281;1294;62039;-79
2023/12/21 10:37:49;;;;;;;19.20;11.90;;;;;;;19.26;34.73;100158.16;104323;1292;61123;-82
2023/12/21 10:40:15;;;;;;;20.80;12.90;;;;;;;19.24;34.58;100155.58;104220;1293;72283;-80
2023/12/21 10:42:47;;;;;;;17.70;12.60;;;;;;;19.21;34.44;100151.91;103936;1293;63403;-80
2023/12/21 10:45:15;;;;;;;18.40;11.20;;;;;;;19.20;34.43;100156.09;104056;1294;62107;-80
2023/12/21 10:47:52;;;;;;;25.40;11.70;;;;;;;19.21;34.46;100155.14;104265;1294;60423;-81
2023/12/21 10:50:18;;;;;;;20.10;11.20;;;;;;;19.23;34.48;100156.05;104045;1292;72374;-81
2023/12/21 10:52:44;;;;;;;20.40;11.60;;;;;;;19.25;34.53;100154.61;104343;1293;62141;-80
2023/12/21 10:55:14;;;;;;;22.50;11.30;;;;;;;19.28;34.60;100151.42;104103;1292;61407;-81
2023/12/21 10:57:41;;;;;;;16.20;10.60;;;;;;;19.30;34.65;100139.10;103704;1293;60205;-81
2023/12/21 11:00:12;;;;;;;20.50;10.40;;;;;;;19.32;34.62;100124.55;103823;1294;73353;-81